sensor_id;sensor_type;location;lat;lon;timestamp;pressure;altitude;pressure_sealevel;temperature
54026;BMP280;74404;50.662;3.398;2024-03-08T00:02:03;100759.69;;;7.38
54026;BMP280;74404;50.662;3.398;2024-03-08T00:04:29;100758.66;;;7.39
54026;BMP280;74404;50.662;3.398;2024-03-08T00:06:54;100758.91;;;7.38
54026;BMP280;74404;50.662;3.398;2024-03-08T00:09:20;100757.06;;;7.38
54026;BMP280;74404;50.662;3.398;2024-03-08T00:11:46;100753.63;;;7.38
54026;BMP280;74404;50.662;3.398;2024-03-08T00:14:14;100754.97;;;7.35
54026;BMP280;74404;50.662;3.398;2024-03-08T00:16:39;100745.97;;;7.31
54026;BMP280;74404;50.662;3.398;2024-03-08T00:19:09;100745.44;;;7.29
54026;BMP280;74404;50.662;3.398;2024-03-08T00:21:34;100740.44;;;7.28
54026;BMP280;74404;50.662;3.398;2024-03-08T00:24:01;100740.94;;;7.25
54026;BMP280;74404;50.662;3.398;2024-03-08T00:26:26;100741.72;;;7.25
54026;BMP280;74404;50.662;3.398;2024-03-08T00:28:52;100746.75;;;7.27
54026;BMP280;74404;50.662;3.398;2024-03-08T00:31:19;100737.00;;;7.22
54026;BMP280;74404;50.662;3.398;2024-03-08T00:33:44;100737.25;;;7.20
54026;BMP280;74404;50.662;3.398;2024-03-08T00:36:10;100733.81;;;7.20
54026;BMP280;74404;50.662;3.398;2024-03-08T00:38:35;100734.88;;;7.19
54026;BMP280;74404;50.662;3.398;2024-03-08T00:41:01;100732.75;;;7.21
54026;BMP280;74404;50.662;3.398;2024-03-08T00:43:27;100727.50;;;7.16
54026;BMP280;74404;50.662;3.398;2024-03-08T00:45:52;100720.34;;;7.11
54026;BMP280;74404;50.662;3.398;2024-03-08T00:48:19;100717.72;;;7.16
54026;BMP280;74404;50.662;3.398;2024-03-08T00:50:44;100720.34;;;7.11
54026;BMP280;74404;50.662;3.398;2024-03-08T00:53:11;100719.25;;;7.07
54026;BMP280;74404;50.662;3.398;2024-03-08T00:55:37;100718.22;;;7.13
54026;BMP280;74404;50.662;3.398;2024-03-08T00:58:04;100714.28;;;7.11
54026;BMP280;74404;50.662;3.398;2024-03-08T01:00:30;100715.84;;;7.07
54026;BMP280;74404;50.662;3.398;2024-03-08T01:02:56;100709.28;;;7.04
54026;BMP280;74404;50.662;3.398;2024-03-08T01:05:22;100705.03;;;7.03
54026;BMP280;74404;50.662;3.398;2024-03-08T01:07:50;100708.72;;;7.07
54026;BMP280;74404;50.662;3.398;2024-03-08T01:10:15;100702.66;;;7.01
54026;BMP280;74404;50.662;3.398;2024-03-08T01:12:41;100694.22;;;6.99
54026;BMP280;74404;50.662;3.398;2024-03-08T01:15:09;100701.59;;;6.97
54026;BMP280;74404;50.662;3.398;2024-03-08T01:17:35;100694.75;;;7.01
54026;BMP280;74404;50.662;3.398;2024-03-08T01:20:01;100693.41;;;6.99
54026;BMP280;74404;50.662;3.398;2024-03-08T01:22:28;100692.63;;;6.98
54026;BMP280;74404;50.662;3.398;2024-03-08T01:24:55;100677.31;;;6.90
54026;BMP280;74404;50.662;3.398;2024-03-08T01:27:21;100682.31;;;6.97
54026;BMP280;74404;50.662;3.398;2024-03-08T01:29:47;100682.03;;;6.93
54026;BMP280;74404;50.662;3.398;2024-03-08T01:32:13;100675.72;;;6.94
54026;BMP280;74404;50.662;3.398;2024-03-08T01:34:38;100671.50;;;6.93
54026;BMP280;74404;50.662;3.398;2024-03-08T01:37:04;100672.28;;;6.89
54026;BMP280;74404;50.662;3.398;2024-03-08T01:39:30;100660.69;;;6.84
54026;BMP280;74404;50.662;3.398;2024-03-08T01:41:55;100666.47;;;6.87
54026;BMP280;74404;50.662;3.398;2024-03-08T01:44:21;100665.94;;;6.84
54026;BMP280;74404;50.662;3.398;2024-03-08T01:46:47;100660.94;;;6.88
54026;BMP280;74404;50.662;3.398;2024-03-08T01:49:13;100653.03;;;6.88
54026;BMP280;74404;50.662;3.398;2024-03-08T01:51:40;100649.88;;;6.86
54026;BMP280;74404;50.662;3.398;2024-03-08T01:54:06;100642.22;;;6.84
54026;BMP280;74404;50.662;3.398;2024-03-08T01:56:35;100643.53;;;6.77
54026;BMP280;74404;50.662;3.398;2024-03-08T01:59:02;100632.97;;;6.77
54026;BMP280;74404;50.662;3.398;2024-03-08T02:01:28;100634.03;;;6.81
54026;BMP280;74404;50.662;3.398;2024-03-08T02:03:54;100638.47;;;6.80
54026;BMP280;74404;50.662;3.398;2024-03-08T02:06:19;100628.47;;;6.72
54026;BMP280;74404;50.662;3.398;2024-03-08T02:08:45;100618.72;;;6.73
54026;BMP280;74404;50.662;3.398;2024-03-08T02:11:11;100610.78;;;6.68
54026;BMP280;74404;50.662;3.398;2024-03-08T02:13:37;100618.19;;;6.76
54026;BMP280;74404;50.662;3.398;2024-03-08T02:16:02;100617.91;;;6.72
54026;BMP280;74404;50.662;3.398;2024-03-08T02:18:30;100602.09;;;6.72
54026;BMP280;74404;50.662;3.398;2024-03-08T02:20:57;100604.19;;;6.70
54026;BMP280;74404;50.662;3.398;2024-03-08T02:23:23;100600.78;;;6.70
54026;BMP280;74404;50.662;3.398;2024-03-08T02:25:53;100591.53;;;6.67
54026;BMP280;74404;50.662;3.398;2024-03-08T02:28:19;100579.13;;;6.57
54026;BMP280;74404;50.662;3.398;2024-03-08T02:30:48;100588.38;;;6.65
54026;BMP280;74404;50.662;3.398;2024-03-08T02:33:15;100582.81;;;6.67
54026;BMP280;74404;50.662;3.398;2024-03-08T02:35:47;100569.66;;;6.61
54026;BMP280;74404;50.662;3.398;2024-03-08T02:38:17;100565.69;;;6.59
54026;BMP280;74404;50.662;3.398;2024-03-08T02:40:44;100577.56;;;6.61
54026;BMP280;74404;50.662;3.398;2024-03-08T02:43:11;100575.72;;;6.62
54026;BMP280;74404;50.662;3.398;2024-03-08T02:45:37;100572.81;;;6.58
54026;BMP280;74404;50.662;3.398;2024-03-08T02:48:03;100562.50;;;6.57
54026;BMP280;74404;50.662;3.398;2024-03-08T02:50:28;100557.50;;;6.55
54026;BMP280;74404;50.662;3.398;2024-03-08T02:52:54;100557.75;;;6.54
54026;BMP280;74404;50.662;3.398;2024-03-08T02:55:20;100552.22;;;6.55
54026;BMP280;74404;50.662;3.398;2024-03-08T02:57:46;100556.16;;;6.53
54026;BMP280;74404;50.662;3.398;2024-03-08T03:00:14;100547.50;;;6.52
54026;BMP280;74404;50.662;3.398;2024-03-08T03:02:41;100551.44;;;6.55
54026;BMP280;74404;50.662;3.398;2024-03-08T03:05:08;100548.56;;;6.51
54026;BMP280;74404;50.662;3.398;2024-03-08T03:07:35;100543.28;;;6.51
54026;BMP280;74404;50.662;3.398;2024-03-08T03:10:01;100542.75;;;6.49
54026;BMP280;74404;50.662;3.398;2024-03-08T03:12:31;100543.81;;;6.48
54026;BMP280;74404;50.662;3.398;2024-03-08T03:14:57;100546.44;;;6.48
54026;BMP280;74404;50.662;3.398;2024-03-08T03:17:23;100537.72;;;6.48
54026;BMP280;74404;50.662;3.398;2024-03-08T03:19:50;100533.25;;;6.48
54026;BMP280;74404;50.662;3.398;2024-03-08T03:22:17;100532.69;;;6.41
54026;BMP280;74404;50.662;3.398;2024-03-08T03:24:44;100532.94;;;6.39
54026;BMP280;74404;50.662;3.398;2024-03-08T03:27:12;100527.41;;;6.41
54026;BMP280;74404;50.662;3.398;2024-03-08T03:29:41;100525.06;;;6.44
54026;BMP280;74404;50.662;3.398;2024-03-08T03:32:14;100516.88;;;6.36
54026;BMP280;74404;50.662;3.398;2024-03-08T03:34:40;100515.31;;;6.40
54026;BMP280;74404;50.662;3.398;2024-03-08T03:37:06;100516.88;;;6.36
54026;BMP280;74404;50.662;3.398;2024-03-08T03:39:38;100499.75;;;6.33
54026;BMP280;74404;50.662;3.398;2024-03-08T03:42:18;100506.59;;;6.34
54026;BMP280;74404;50.662;3.398;2024-03-08T03:44:45;100506.84;;;6.33
54026;BMP280;74404;50.662;3.398;2024-03-08T03:47:12;100510.31;;;6.33
54026;BMP280;74404;50.662;3.398;2024-03-08T03:49:38;100508.19;;;6.35
54026;BMP280;74404;50.662;3.398;2024-03-08T03:52:04;100499.50;;;6.35
54026;BMP280;74404;50.662;3.398;2024-03-08T03:54:30;100491.81;;;6.28
54026;BMP280;74404;50.662;3.398;2024-03-08T03:56:56;100494.72;;;6.27
54026;BMP280;74404;50.662;3.398;2024-03-08T03:59:24;100496.03;;;6.29
54026;BMP280;74404;50.662;3.398;2024-03-08T04:01:49;100496.31;;;6.33
54026;BMP280;74404;50.662;3.398;2024-03-08T04:04:15;100488.41;;;6.28
54026;BMP280;74404;50.662;3.398;2024-03-08T04:06:41;100496.31;;;6.28
54026;BMP280;74404;50.662;3.398;2024-03-08T04:09:07;100481.56;;;6.27
54026;BMP280;74404;50.662;3.398;2024-03-08T04:11:33;100477.59;;;6.29
54026;BMP280;74404;50.662;3.398;2024-03-08T04:13:58;100479.47;;;6.23
54026;BMP280;74404;50.662;3.398;2024-03-08T04:16:24;100473.38;;;6.23
54026;BMP280;74404;50.662;3.398;2024-03-08T04:18:51;100481.00;;;6.24
54026;BMP280;74404;50.662;3.398;2024-03-08T04:21:17;100473.91;;;6.20
54026;BMP280;74404;50.662;3.398;2024-03-08T04:23:45;100474.19;;;6.18
54026;BMP280;74404;50.662;3.398;2024-03-08T04:26:11;100467.84;;;6.19
54026;BMP280;74404;50.662;3.398;2024-03-08T04:28:36;100458.31;;;6.13
54026;BMP280;74404;50.662;3.398;2024-03-08T04:31:03;100458.06;;;6.15
54026;BMP280;74404;50.662;3.398;2024-03-08T04:33:29;100454.41;;;6.21
54026;BMP280;74404;50.662;3.398;2024-03-08T04:35:55;100462.56;;;6.19
54026;BMP280;74404;50.662;3.398;2024-03-08T04:38:21;100459.66;;;6.16
54026;BMP280;74404;50.662;3.398;2024-03-08T04:40:46;100466.50;;;6.12
54026;BMP280;74404;50.662;3.398;2024-03-08T04:43:12;100454.38;;;6.11
54026;BMP280;74404;50.662;3.398;2024-03-08T04:45:38;100449.91;;;6.11
54026;BMP280;74404;50.662;3.398;2024-03-08T04:48:04;100452.81;;;6.10
54026;BMP280;74404;50.662;3.398;2024-03-08T04:50:30;100452.53;;;6.11
54026;BMP280;74404;50.662;3.398;2024-03-08T04:52:55;100448.63;;;6.09
54026;BMP280;74404;50.662;3.398;2024-03-08T04:55:21;100437.25;;;6.03
54026;BMP280;74404;50.662;3.398;2024-03-08T04:57:49;100448.31;;;6.05
54026;BMP280;74404;50.662;3.398;2024-03-08T05:00:15;100451.75;;;6.05
54026;BMP280;74404;50.662;3.398;2024-03-08T05:02:41;100445.69;;;6.05
54026;BMP280;74404;50.662;3.398;2024-03-08T05:05:10;100436.75;;;6.06
54026;BMP280;74404;50.662;3.398;2024-03-08T05:07:38;100438.06;;;6.03
54026;BMP280;74404;50.662;3.398;2024-03-08T05:10:05;100427.47;;;5.98
54026;BMP280;74404;50.662;3.398;2024-03-08T05:12:32;100435.69;;;6.02
54026;BMP280;74404;50.662;3.398;2024-03-08T05:14:58;100430.16;;;6.03
54026;BMP280;74404;50.662;3.398;2024-03-08T05:17:23;100426.97;;;6.01
54026;BMP280;74404;50.662;3.398;2024-03-08T05:19:49;100409.56;;;5.90
54026;BMP280;74404;50.662;3.398;2024-03-08T05:22:15;100431.97;;;5.98
54026;BMP280;74404;50.662;3.398;2024-03-08T05:24:41;100427.47;;;5.98
54026;BMP280;74404;50.662;3.398;2024-03-08T05:27:06;100427.47;;;5.98
54026;BMP280;74404;50.662;3.398;2024-03-08T05:29:32;100427.25;;;5.95
54026;BMP280;74404;50.662;3.398;2024-03-08T05:31:58;100421.97;;;5.95
54026;BMP280;74404;50.662;3.398;2024-03-08T05:34:24;100423.03;;;5.94
54026;BMP280;74404;50.662;3.398;2024-03-08T05:36:51;100420.91;;;5.91
54026;BMP280;74404;50.662;3.398;2024-03-08T05:39:17;100420.91;;;5.91
54026;BMP280;74404;50.662;3.398;2024-03-08T05:41:44;100409.31;;;5.86
54026;BMP280;74404;50.662;3.398;2024-03-08T05:44:10;100415.91;;;5.89
54026;BMP280;74404;50.662;3.398;2024-03-08T05:46:36;100412.50;;;5.89
54026;BMP280;74404;50.662;3.398;2024-03-08T05:49:06;100417.22;;;5.92
54026;BMP280;74404;50.662;3.398;2024-03-08T05:51:32;100404.03;;;5.86
54026;BMP280;74404;50.662;3.398;2024-03-08T05:54:03;100400.34;;;5.88
54026;BMP280;74404;50.662;3.398;2024-03-08T05:56:31;100397.19;;;5.85
54026;BMP280;74404;50.662;3.398;2024-03-08T05:58:57;100387.97;;;5.83
54026;BMP280;74404;50.662;3.398;2024-03-08T06:01:26;100383.22;;;5.85
54026;BMP280;74404;50.662;3.398;2024-03-08T06:03:56;100376.63;;;5.82
54026;BMP280;74404;50.662;3.398;2024-03-08T06:06:22;100380.31;;;5.86
54026;BMP280;74404;50.662;3.398;2024-03-08T06:08:48;100374.56;;;5.79
54026;BMP280;74404;50.662;3.398;2024-03-08T06:11:18;100366.38;;;5.81
54026;BMP280;74404;50.662;3.398;2024-03-08T06:13:44;100368.75;;;5.77
54026;BMP280;74404;50.662;3.398;2024-03-08T06:16:10;100364.28;;;5.78
54026;BMP280;74404;50.662;3.398;2024-03-08T06:18:36;100357.16;;;5.78
54026;BMP280;74404;50.662;3.398;2024-03-08T06:21:07;100356.38;;;5.78
54026;BMP280;74404;50.662;3.398;2024-03-08T06:23:38;100359.78;;;5.78
54026;BMP280;74404;50.662;3.398;2024-03-08T06:26:07;100368.75;;;5.77
54026;BMP280;74404;50.662;3.398;2024-03-08T06:28:33;100360.84;;;5.77
54026;BMP280;74404;50.662;3.398;2024-03-08T06:31:00;100370.56;;;5.77
54026;BMP280;74404;50.662;3.398;2024-03-08T06:33:25;100358.47;;;5.76
54026;BMP280;74404;50.662;3.398;2024-03-08T06:35:52;100365.81;;;5.74
54026;BMP280;74404;50.662;3.398;2024-03-08T06:38:18;100358.72;;;5.69
54026;BMP280;74404;50.662;3.398;2024-03-08T06:40:44;100360.28;;;5.70
54026;BMP280;74404;50.662;3.398;2024-03-08T06:43:13;100358.16;;;5.67
54026;BMP280;74404;50.662;3.398;2024-03-08T06:45:42;100363.72;;;5.71
54026;BMP280;74404;50.662;3.398;2024-03-08T06:48:07;100368.44;;;5.68
54026;BMP280;74404;50.662;3.398;2024-03-08T06:50:35;100363.19;;;5.68
54026;BMP280;74404;50.662;3.398;2024-03-08T06:53:01;100363.44;;;5.67
54026;BMP280;74404;50.662;3.398;2024-03-08T06:55:28;100361.63;;;5.67
54026;BMP280;74404;50.662;3.398;2024-03-08T06:57:54;100360.56;;;5.63
54026;BMP280;74404;50.662;3.398;2024-03-08T07:00:20;100348.22;;;5.64
54026;BMP280;74404;50.662;3.398;2024-03-08T07:02:46;100364.00;;;5.64
54026;BMP280;74404;50.662;3.398;2024-03-08T07:05:14;100358.72;;;5.69
54026;BMP280;74404;50.662;3.398;2024-03-08T07:07:41;100354.50;;;5.63
54026;BMP280;74404;50.662;3.398;2024-03-08T07:10:08;100350.03;;;5.63
54026;BMP280;74404;50.662;3.398;2024-03-08T07:12:37;100345.84;;;5.62
54026;BMP280;74404;50.662;3.398;2024-03-08T07:15:05;100354.50;;;5.63
54026;BMP280;74404;50.662;3.398;2024-03-08T07:17:31;100346.88;;;5.61
54026;BMP280;74404;50.662;3.398;2024-03-08T07:19:59;100341.59;;;5.61
54026;BMP280;74404;50.662;3.398;2024-03-08T07:22:31;100338.72;;;5.63
54026;BMP280;74404;50.662;3.398;2024-03-08T07:24:56;100331.84;;;5.62
54026;BMP280;74404;50.662;3.398;2024-03-08T07:27:40;100333.19;;;5.64
54026;BMP280;74404;50.662;3.398;2024-03-08T07:30:06;100327.41;;;5.62
54026;BMP280;74404;50.662;3.398;2024-03-08T07:32:34;100320.03;;;5.59
54026;BMP280;74404;50.662;3.398;2024-03-08T07:35:00;100317.38;;;5.59
54026;BMP280;74404;50.662;3.398;2024-03-08T07:37:29;100314.75;;;5.59
54026;BMP280;74404;50.662;3.398;2024-03-08T07:39:54;100308.41;;;5.60
54026;BMP280;74404;50.662;3.398;2024-03-08T07:42:20;100306.84;;;5.59
54026;BMP280;74404;50.662;3.398;2024-03-08T07:44:47;100308.16;;;5.62
54026;BMP280;74404;50.662;3.398;2024-03-08T07:47:14;100306.09;;;5.64
54026;BMP280;74404;50.662;3.398;2024-03-08T07:49:39;100302.34;;;5.65
54026;BMP280;74404;50.662;3.398;2024-03-08T07:52:05;100301.06;;;5.62
54026;BMP280;74404;50.662;3.398;2024-03-08T07:54:33;100294.47;;;5.65
54026;BMP280;74404;50.662;3.398;2024-03-08T07:57:00;100290.25;;;5.69
54026;BMP280;74404;50.662;3.398;2024-03-08T07:59:28;100294.97;;;5.67
54026;BMP280;74404;50.662;3.398;2024-03-08T08:01:54;100281.56;;;5.68
54026;BMP280;74404;50.662;3.398;2024-03-08T08:04:20;100281.28;;;5.70
54026;BMP280;74404;50.662;3.398;2024-03-08T08:06:50;100279.47;;;5.71
54026;BMP280;74404;50.662;3.398;2024-03-08T08:09:16;100278.94;;;5.74
54026;BMP280;74404;50.662;3.398;2024-03-08T08:11:54;100266.31;;;5.76
54026;BMP280;74404;50.662;3.398;2024-03-08T08:14:19;100273.97;;;5.77
54026;BMP280;74404;50.662;3.398;2024-03-08T08:16:46;100272.63;;;5.80
54026;BMP280;74404;50.662;3.398;2024-03-08T08:19:14;100270.00;;;5.80
54026;BMP280;74404;50.662;3.398;2024-03-08T08:21:41;100267.06;;;5.81
54026;BMP280;74404;50.662;3.398;2024-03-08T08:24:06;100258.66;;;5.84
54026;BMP280;74404;50.662;3.398;2024-03-08T08:26:32;100269.72;;;5.86
54026;BMP280;74404;50.662;3.398;2024-03-08T08:28:59;100259.44;;;5.90
54026;BMP280;74404;50.662;3.398;2024-03-08T08:31:25;100261.28;;;5.90
54026;BMP280;74404;50.662;3.398;2024-03-08T08:33:51;100266.31;;;5.91
54026;BMP280;74404;50.662;3.398;2024-03-08T08:36:23;100252.88;;;5.93
54026;BMP280;74404;50.662;3.398;2024-03-08T08:38:48;100248.59;;;5.97
54026;BMP280;74404;50.662;3.398;2024-03-08T08:41:14;100252.06;;;5.97
54026;BMP280;74404;50.662;3.398;2024-03-08T08:43:41;100238.38;;;6.00
54026;BMP280;74404;50.662;3.398;2024-03-08T08:46:10;100238.88;;;6.02
54026;BMP280;74404;50.662;3.398;2024-03-08T08:48:41;100235.72;;;6.05
54026;BMP280;74404;50.662;3.398;2024-03-08T08:51:09;100228.34;;;6.08
54026;BMP280;74404;50.662;3.398;2024-03-08T08:53:40;100230.72;;;6.09
54026;BMP280;74404;50.662;3.398;2024-03-08T08:56:08;100233.06;;;6.11
54026;BMP280;74404;50.662;3.398;2024-03-08T08:58:34;100228.81;;;6.15
54026;BMP280;74404;50.662;3.398;2024-03-08T09:01:00;100225.94;;;6.16
54026;BMP280;74404;50.662;3.398;2024-03-08T09:03:27;100217.75;;;6.18
54026;BMP280;74404;50.662;3.398;2024-03-08T09:05:53;100219.59;;;6.22
54026;BMP280;74404;50.662;3.398;2024-03-08T09:08:19;100213.78;;;6.25
54026;BMP280;74404;50.662;3.398;2024-03-08T09:10:45;100205.88;;;6.25
54026;BMP280;74404;50.662;3.398;2024-03-08T09:13:13;100207.47;;;6.32
54026;BMP280;74404;50.662;3.398;2024-03-08T09:15:39;100203.47;;;6.34
54026;BMP280;74404;50.662;3.398;2024-03-08T09:18:06;100207.44;;;6.37
54026;BMP280;74404;50.662;3.398;2024-03-08T09:20:32;100209.53;;;6.40
54026;BMP280;74404;50.662;3.398;2024-03-08T09:22:58;100195.81;;;6.38
54026;BMP280;74404;50.662;3.398;2024-03-08T09:25:23;100194.75;;;6.44
54026;BMP280;74404;50.662;3.398;2024-03-08T09:27:49;100191.06;;;6.45
54026;BMP280;74404;50.662;3.398;2024-03-08T09:30:15;100182.63;;;6.48
54026;BMP280;74404;50.662;3.398;2024-03-08T09:32:41;100182.88;;;6.52
54026;BMP280;74404;50.662;3.398;2024-03-08T09:35:08;100188.34;;;6.55
54026;BMP280;74404;50.662;3.398;2024-03-08T09:37:34;100184.41;;;6.58
54026;BMP280;74404;50.662;3.398;2024-03-08T09:40:00;100181.75;;;6.63
54026;BMP280;74404;50.662;3.398;2024-03-08T09:42:30;100163.03;;;6.64
54026;BMP280;74404;50.662;3.398;2024-03-08T09:44:57;100164.03;;;6.69
54026;BMP280;74404;50.662;3.398;2024-03-08T09:47:24;100160.06;;;6.71
54026;BMP280;74404;50.662;3.398;2024-03-08T09:49:54;100160.31;;;6.75
54026;BMP280;74404;50.662;3.398;2024-03-08T09:52:20;100152.91;;;6.77
54026;BMP280;74404;50.662;3.398;2024-03-08T09:54:46;100141.78;;;6.80
54026;BMP280;74404;50.662;3.398;2024-03-08T09:57:11;100135.97;;;6.83
54026;BMP280;74404;50.662;3.398;2024-03-08T09:59:37;100134.63;;;6.86
54026;BMP280;74404;50.662;3.398;2024-03-08T10:02:03;100127.78;;;6.90
54026;BMP280;74404;50.662;3.398;2024-03-08T10:04:29;100116.66;;;6.93
54026;BMP280;74404;50.662;3.398;2024-03-08T10:06:58;100111.63;;;6.96
54026;BMP280;74404;50.662;3.398;2024-03-08T10:09:25;100112.91;;;6.99
54026;BMP280;74404;50.662;3.398;2024-03-08T10:11:58;100120.00;;;7.03
54026;BMP280;74404;50.662;3.398;2024-03-08T10:14:25;100113.38;;;7.06
54026;BMP280;74404;50.662;3.398;2024-03-08T10:16:54;100103.31;;;7.08
54026;BMP280;74404;50.662;3.398;2024-03-08T10:19:20;100100.16;;;7.11
54026;BMP280;74404;50.662;3.398;2024-03-08T10:21:51;100101.47;;;7.14
54026;BMP280;74404;50.662;3.398;2024-03-08T10:24:19;100090.09;;;7.13
54026;BMP280;74404;50.662;3.398;2024-03-08T10:26:45;100087.94;;;7.20
54026;BMP280;74404;50.662;3.398;2024-03-08T10:29:11;100088.66;;;7.26
54026;BMP280;74404;50.662;3.398;2024-03-08T10:31:43;100080.16;;;7.29
54026;BMP280;74404;50.662;3.398;2024-03-08T10:34:10;100073.25;;;7.33
54026;BMP280;74404;50.662;3.398;2024-03-08T10:36:36;100080.13;;;7.34
54026;BMP280;74404;50.662;3.398;2024-03-08T10:39:06;100066.38;;;7.37
54026;BMP280;74404;50.662;3.398;2024-03-08T10:41:37;100067.34;;;7.41
54026;BMP280;74404;50.662;3.398;2024-03-08T10:47:29;100067.31;;;7.47
54026;BMP280;74404;50.662;3.398;2024-03-08T10:50:25;100056.19;;;7.50
54026;BMP280;74404;50.662;3.398;2024-03-08T10:52:51;100057.78;;;7.51
54026;BMP280;74404;50.662;3.398;2024-03-08T10:55:18;100048.19;;;7.55
54026;BMP280;74404;50.662;3.398;2024-03-08T10:57:46;100044.72;;;7.59
54026;BMP280;74404;50.662;3.398;2024-03-08T11:00:15;100053.97;;;7.62
54026;BMP280;74404;50.662;3.398;2024-03-08T11:02:44;100054.47;;;7.64
54026;BMP280;74404;50.662;3.398;2024-03-08T11:05:11;100040.16;;;7.65
54026;BMP280;74404;50.662;3.398;2024-03-08T11:07:44;100037.75;;;7.69
54026;BMP280;74404;50.662;3.398;2024-03-08T11:10:19;100032.97;;;7.71
54026;BMP280;74404;50.662;3.398;2024-03-08T11:12:45;100039.28;;;7.75
54026;BMP280;74404;50.662;3.398;2024-03-08T11:15:13;100028.09;;;7.78
54026;BMP280;74404;50.662;3.398;2024-03-08T11:17:42;100024.13;;;7.80
54026;BMP280;74404;50.662;3.398;2024-03-08T11:20:11;100035.19;;;7.82
54026;BMP280;74404;50.662;3.398;2024-03-08T11:22:52;100023.28;;;7.85
54026;BMP280;74404;50.662;3.398;2024-03-08T11:25:40;100009.22;;;7.90
54026;BMP280;74404;50.662;3.398;2024-03-08T11:28:18;100012.84;;;7.94
54026;BMP280;74404;50.662;3.398;2024-03-08T11:33:30;100023.31;;;7.99
54026;BMP280;74404;50.662;3.398;2024-03-08T11:36:10;100014.06;;;8.01
54026;BMP280;74404;50.662;3.398;2024-03-08T11:38:42;100009.00;;;8.05
54026;BMP280;74404;50.662;3.398;2024-03-08T11:41:16;100005.00;;;8.08
54026;BMP280;74404;50.662;3.398;2024-03-08T11:43:43;99995.69;;;8.10
54026;BMP280;74404;50.662;3.398;2024-03-08T11:46:10;99991.69;;;8.13
54026;BMP280;74404;50.662;3.398;2024-03-08T11:48:39;99991.91;;;8.16
54026;BMP280;74404;50.662;3.398;2024-03-08T11:51:07;100000.81;;;8.20
54026;BMP280;74404;50.662;3.398;2024-03-08T11:53:33;99983.31;;;8.25
54026;BMP280;74404;50.662;3.398;2024-03-08T11:56:25;99981.19;;;8.27
54026;BMP280;74404;50.662;3.398;2024-03-08T11:58:56;99973.47;;;8.30
54026;BMP280;74404;50.662;3.398;2024-03-08T12:01:23;99971.00;;;8.34
54026;BMP280;74404;50.662;3.398;2024-03-08T12:03:58;99971.22;;;8.37
54026;BMP280;74404;50.662;3.398;2024-03-08T12:06:36;99961.91;;;8.40
54026;BMP280;74404;50.662;3.398;2024-03-08T12:09:07;99959.16;;;8.45
54026;BMP280;74404;50.662;3.398;2024-03-08T12:11:34;99946.75;;;8.46
54026;BMP280;74404;50.662;3.398;2024-03-08T12:14:01;99948.22;;;8.52
54026;BMP280;74404;50.662;3.398;2024-03-08T12:16:27;99945.75;;;8.55
54026;BMP280;74404;50.662;3.398;2024-03-08T12:18:53;99940.72;;;8.59
54026;BMP280;74404;50.662;3.398;2024-03-08T12:21:19;99929.84;;;8.60
54026;BMP280;74404;50.662;3.398;2024-03-08T12:24:03;99931.28;;;8.67
54026;BMP280;74404;50.662;3.398;2024-03-08T12:26:29;99924.66;;;8.69
54026;BMP280;74404;50.662;3.398;2024-03-08T12:29:17;99927.94;;;8.75
54026;BMP280;74404;50.662;3.398;2024-03-08T12:31:46;99918.66;;;8.77
54026;BMP280;74404;50.662;3.398;2024-03-08T12:34:12;99915.91;;;8.82
54026;BMP280;74404;50.662;3.398;2024-03-08T12:36:45;99916.91;;;8.87
54026;BMP280;74404;50.662;3.398;2024-03-08T12:39:13;99912.59;;;8.91
54026;BMP280;74404;50.662;3.398;2024-03-08T12:41:41;99902.94;;;8.95
54026;BMP280;74404;50.662;3.398;2024-03-08T12:44:07;99898.66;;;8.99
54026;BMP280;74404;50.662;3.398;2024-03-08T12:46:39;99888.22;;;9.02
54026;BMP280;74404;50.662;3.398;2024-03-08T12:49:10;99874.41;;;9.06
54026;BMP280;74404;50.662;3.398;2024-03-08T12:51:38;99874.31;;;9.11
54026;BMP280;74404;50.662;3.398;2024-03-08T12:54:07;99872.66;;;9.15
54026;BMP280;74404;50.662;3.398;2024-03-08T12:56:34;99867.53;;;9.18
54026;BMP280;74404;50.662;3.398;2024-03-08T12:59:01;99869.75;;;9.25
54026;BMP280;74404;50.662;3.398;2024-03-08T13:01:27;99855.13;;;9.28
54026;BMP280;74404;50.662;3.398;2024-03-08T13:03:55;99848.94;;;9.32
54026;BMP280;74404;50.662;3.398;2024-03-08T13:06:21;99845.41;;;9.37
54026;BMP280;74404;50.662;3.398;2024-03-08T13:08:50;99838.41;;;9.41
54026;BMP280;74404;50.662;3.398;2024-03-08T13:11:16;99833.03;;;9.46
54026;BMP280;74404;50.662;3.398;2024-03-08T13:13:42;99834.72;;;9.51
54026;BMP280;74404;50.662;3.398;2024-03-08T13:16:08;99828.84;;;9.54
54026;BMP280;74404;50.662;3.398;2024-03-08T13:18:34;99827.94;;;9.58
54026;BMP280;74404;50.662;3.398;2024-03-08T13:21:00;99815.66;;;9.63
54026;BMP280;74404;50.662;3.398;2024-03-08T13:23:30;99817.41;;;9.67
54026;BMP280;74404;50.662;3.398;2024-03-08T13:25:56;99806.19;;;9.70
54026;BMP280;74404;50.662;3.398;2024-03-08T13:28:22;99806.34;;;9.74
54026;BMP280;74404;50.662;3.398;2024-03-08T13:30:53;99794.06;;;9.78
54026;BMP280;74404;50.662;3.398;2024-03-08T13:33:19;99792.06;;;9.84
54026;BMP280;74404;50.662;3.398;2024-03-08T13:35:45;99796.44;;;9.88
54026;BMP280;74404;50.662;3.398;2024-03-08T13:38:12;99802.72;;;9.92
54026;BMP280;74404;50.662;3.398;2024-03-08T13:40:39;99786.66;;;9.97
54026;BMP280;74404;50.662;3.398;2024-03-08T13:43:06;99793.72;;;10.02
54026;BMP280;74404;50.662;3.398;2024-03-08T13:45:34;99790.91;;;10.07
54026;BMP280;74404;50.662;3.398;2024-03-08T13:48:03;99786.72;;;10.15
54026;BMP280;74404;50.662;3.398;2024-03-08T13:50:39;99776.59;;;10.17
54026;BMP280;74404;50.662;3.398;2024-03-08T13:53:05;99768.50;;;10.22
54026;BMP280;74404;50.662;3.398;2024-03-08T13:55:30;99771.31;;;10.26
54026;BMP280;74404;50.662;3.398;2024-03-08T13:57:56;99772.72;;;10.32
54026;BMP280;74404;50.662;3.398;2024-03-08T14:00:22;99765.25;;;10.34
54026;BMP280;74404;50.662;3.398;2024-03-08T14:02:50;99753.72;;;10.38
54026;BMP280;74404;50.662;3.398;2024-03-08T14:05:16;99754.03;;;10.37
54026;BMP280;74404;50.662;3.398;2024-03-08T14:07:43;99757.00;;;10.44
54026;BMP280;74404;50.662;3.398;2024-03-08T14:10:11;99752.63;;;10.48
54026;BMP280;74404;50.662;3.398;2024-03-08T14:12:38;99746.88;;;10.55
54026;BMP280;74404;50.662;3.398;2024-03-08T14:15:05;99753.09;;;10.59
54026;BMP280;74404;50.662;3.398;2024-03-08T14:17:32;99746.41;;;10.61
54026;BMP280;74404;50.662;3.398;2024-03-08T14:19:58;99737.50;;;10.66